Terminal Aerodrome Forecast
Issued by NWS Cleveland, OH

Home | Current Version | Previous Version | Graphics & Text | Print | Product List | Glossary Off
Versions: 1 2 3 4 5 6 7 8 9 10 11 12 13 14 15 16 17 18

000
FTUS41 KCLE 272328
TAFERI
TAF
KERI 272328Z 2800/2824 34007KT P6SM SCT250
     FM280500 14004KT P6SM SCT250
     FM281400 16005KT P6SM BKN150
     FM282000 08006KT P6SM -SHRA VCTS OVC045CB
     FM282200 10006KT 6SM -SHRA VCTS OVC045CB=

USA.gov is the U.S. government's official web portal to all federal, state and local government web resources and services.